sensor_id;sensor_type;location;lat;lon;timestamp;P1;durP1;ratioP1;P2;durP2;ratioP2
66175;SDS011;52977;44.816;20.538;2024-03-17T00:01:02;27.52;;;14.05;;
66175;SDS011;52977;44.816;20.538;2024-03-17T00:03:30;29.17;;;14.80;;
66175;SDS011;52977;44.816;20.538;2024-03-17T00:05:56;25.80;;;13.88;;
66175;SDS011;52977;44.816;20.538;2024-03-17T00:08:23;24.77;;;13.52;;
66175;SDS011;52977;44.816;20.538;2024-03-17T00:10:51;26.90;;;13.15;;
66175;SDS011;52977;44.816;20.538;2024-03-17T00:13:18;25.63;;;13.65;;
66175;SDS011;52977;44.816;20.538;2024-03-17T00:15:45;27.48;;;14.38;;
66175;SDS011;52977;44.816;20.538;2024-03-17T00:18:11;29.60;;;15.85;;
66175;SDS011;52977;44.816;20.538;2024-03-17T00:20:37;33.67;;;16.85;;
66175;SDS011;52977;44.816;20.538;2024-03-17T00:23:04;32.95;;;17.55;;
66175;SDS011;52977;44.816;20.538;2024-03-17T00:25:32;32.40;;;17.80;;
66175;SDS011;52977;44.816;20.538;2024-03-17T00:28:18;30.20;;;15.82;;
66175;SDS011;52977;44.816;20.538;2024-03-17T00:30:46;30.70;;;15.82;;
66175;SDS011;52977;44.816;20.538;2024-03-17T00:33:13;31.23;;;15.70;;
66175;SDS011;52977;44.816;20.538;2024-03-17T00:35:40;26.10;;;14.00;;
66175;SDS011;52977;44.816;20.538;2024-03-17T00:38:06;25.20;;;13.65;;
66175;SDS011;52977;44.816;20.538;2024-03-17T00:40:37;23.95;;;13.23;;
66175;SDS011;52977;44.816;20.538;2024-03-17T00:43:04;28.30;;;14.65;;
66175;SDS011;52977;44.816;20.538;2024-03-17T00:45:31;27.42;;;14.65;;
66175;SDS011;52977;44.816;20.538;2024-03-17T00:47:57;29.95;;;16.27;;
66175;SDS011;52977;44.816;20.538;2024-03-17T00:50:24;31.80;;;17.17;;
66175;SDS011;52977;44.816;20.538;2024-03-17T00:52:50;42.42;;;22.65;;
66175;SDS011;52977;44.816;20.538;2024-03-17T00:55:16;46.33;;;23.30;;
66175;SDS011;52977;44.816;20.538;2024-03-17T00:57:43;44.50;;;24.33;;
66175;SDS011;52977;44.816;20.538;2024-03-17T01:00:10;48.67;;;24.70;;
66175;SDS011;52977;44.816;20.538;2024-03-17T01:02:41;47.28;;;24.33;;
66175;SDS011;52977;44.816;20.538;2024-03-17T01:05:08;41.70;;;22.88;;
66175;SDS011;52977;44.816;20.538;2024-03-17T01:07:34;47.22;;;23.75;;
66175;SDS011;52977;44.816;20.538;2024-03-17T01:10:01;52.25;;;23.95;;
66175;SDS011;52977;44.816;20.538;2024-03-17T01:12:27;49.97;;;26.33;;
66175;SDS011;52977;44.816;20.538;2024-03-17T01:14:54;47.90;;;24.48;;
66175;SDS011;52977;44.816;20.538;2024-03-17T01:17:20;56.20;;;27.02;;
66175;SDS011;52977;44.816;20.538;2024-03-17T01:19:47;48.78;;;27.27;;
66175;SDS011;52977;44.816;20.538;2024-03-17T01:22:14;52.25;;;26.55;;
66175;SDS011;52977;44.816;20.538;2024-03-17T01:24:40;48.80;;;26.58;;
66175;SDS011;52977;44.816;20.538;2024-03-17T01:27:12;54.28;;;27.38;;
66175;SDS011;52977;44.816;20.538;2024-03-17T01:29:42;53.35;;;28.38;;
66175;SDS011;52977;44.816;20.538;2024-03-17T01:32:09;60.05;;;29.75;;
66175;SDS011;52977;44.816;20.538;2024-03-17T01:34:39;51.10;;;27.60;;
66175;SDS011;52977;44.816;20.538;2024-03-17T01:37:06;59.45;;;29.13;;
66175;SDS011;52977;44.816;20.538;2024-03-17T01:39:33;59.67;;;29.70;;
66175;SDS011;52977;44.816;20.538;2024-03-17T01:41:59;55.72;;;28.92;;
66175;SDS011;52977;44.816;20.538;2024-03-17T01:44:27;54.22;;;28.33;;
66175;SDS011;52977;44.816;20.538;2024-03-17T01:46:56;51.85;;;28.05;;
66175;SDS011;52977;44.816;20.538;2024-03-17T01:49:22;51.67;;;27.38;;
66175;SDS011;52977;44.816;20.538;2024-03-17T01:51:52;48.85;;;26.73;;
66175;SDS011;52977;44.816;20.538;2024-03-17T01:54:19;54.55;;;28.38;;
66175;SDS011;52977;44.816;20.538;2024-03-17T01:56:46;49.05;;;26.25;;
66175;SDS011;52977;44.816;20.538;2024-03-17T01:59:13;53.78;;;27.65;;
66175;SDS011;52977;44.816;20.538;2024-03-17T02:01:39;56.25;;;28.67;;
66175;SDS011;52977;44.816;20.538;2024-03-17T02:04:06;54.72;;;27.58;;
66175;SDS011;52977;44.816;20.538;2024-03-17T02:06:33;51.28;;;28.08;;
66175;SDS011;52977;44.816;20.538;2024-03-17T02:09:00;55.17;;;26.98;;
66175;SDS011;52977;44.816;20.538;2024-03-17T02:11:27;54.72;;;28.30;;
66175;SDS011;52977;44.816;20.538;2024-03-17T02:13:55;52.22;;;26.88;;
66175;SDS011;52977;44.816;20.538;2024-03-17T02:16:22;47.05;;;26.48;;
66175;SDS011;52977;44.816;20.538;2024-03-17T02:18:53;50.67;;;27.05;;
66175;SDS011;52977;44.816;20.538;2024-03-17T02:21:23;52.65;;;26.05;;
66175;SDS011;52977;44.816;20.538;2024-03-17T02:23:52;47.33;;;26.40;;
66175;SDS011;52977;44.816;20.538;2024-03-17T02:26:19;52.08;;;26.95;;
66175;SDS011;52977;44.816;20.538;2024-03-17T02:28:46;50.65;;;26.20;;
66175;SDS011;52977;44.816;20.538;2024-03-17T02:31:14;53.92;;;26.02;;
66175;SDS011;52977;44.816;20.538;2024-03-17T02:33:42;49.72;;;26.92;;
66175;SDS011;52977;44.816;20.538;2024-03-17T02:36:10;51.17;;;25.98;;
66175;SDS011;52977;44.816;20.538;2024-03-17T02:38:38;50.05;;;25.83;;
66175;SDS011;52977;44.816;20.538;2024-03-17T02:41:23;46.92;;;24.67;;
66175;SDS011;52977;44.816;20.538;2024-03-17T02:43:49;43.50;;;22.45;;
66175;SDS011;52977;44.816;20.538;2024-03-17T02:46:17;42.45;;;23.05;;
66175;SDS011;52977;44.816;20.538;2024-03-17T02:48:45;42.28;;;21.80;;
66175;SDS011;52977;44.816;20.538;2024-03-17T02:51:13;43.75;;;22.20;;
66175;SDS011;52977;44.816;20.538;2024-03-17T02:53:41;38.40;;;20.63;;
66175;SDS011;52977;44.816;20.538;2024-03-17T02:56:08;40.45;;;20.17;;
66175;SDS011;52977;44.816;20.538;2024-03-17T02:58:35;35.95;;;19.70;;
66175;SDS011;52977;44.816;20.538;2024-03-17T03:03:37;39.88;;;20.75;;
66175;SDS011;52977;44.816;20.538;2024-03-17T03:06:03;41.83;;;21.35;;
66175;SDS011;52977;44.816;20.538;2024-03-17T03:08:38;40.47;;;20.65;;
66175;SDS011;52977;44.816;20.538;2024-03-17T03:11:07;40.97;;;20.85;;
66175;SDS011;52977;44.816;20.538;2024-03-17T03:13:54;40.08;;;21.38;;
66175;SDS011;52977;44.816;20.538;2024-03-17T03:16:20;44.78;;;22.83;;
66175;SDS011;52977;44.816;20.538;2024-03-17T03:18:47;40.92;;;21.63;;
66175;SDS011;52977;44.816;20.538;2024-03-17T03:21:13;48.58;;;24.20;;
66175;SDS011;52977;44.816;20.538;2024-03-17T03:23:40;46.08;;;22.67;;
66175;SDS011;52977;44.816;20.538;2024-03-17T03:26:07;43.55;;;22.75;;
66175;SDS011;52977;44.816;20.538;2024-03-17T03:28:35;44.85;;;23.65;;
66175;SDS011;52977;44.816;20.538;2024-03-17T03:31:01;41.60;;;22.50;;
66175;SDS011;52977;44.816;20.538;2024-03-17T03:33:28;42.80;;;22.02;;
66175;SDS011;52977;44.816;20.538;2024-03-17T03:35:54;43.85;;;22.63;;
66175;SDS011;52977;44.816;20.538;2024-03-17T03:38:21;44.42;;;22.35;;
66175;SDS011;52977;44.816;20.538;2024-03-17T03:40:48;45.03;;;23.73;;
66175;SDS011;52977;44.816;20.538;2024-03-17T03:43:15;45.80;;;24.17;;
66175;SDS011;52977;44.816;20.538;2024-03-17T03:45:41;42.78;;;23.50;;
66175;SDS011;52977;44.816;20.538;2024-03-17T03:48:08;45.08;;;23.95;;
66175;SDS011;52977;44.816;20.538;2024-03-17T03:50:35;45.25;;;24.77;;
66175;SDS011;52977;44.816;20.538;2024-03-17T03:53:03;44.85;;;22.58;;
66175;SDS011;52977;44.816;20.538;2024-03-17T03:55:31;38.47;;;21.40;;
66175;SDS011;52977;44.816;20.538;2024-03-17T03:57:58;36.20;;;19.77;;
66175;SDS011;52977;44.816;20.538;2024-03-17T04:00:24;40.10;;;21.45;;
66175;SDS011;52977;44.816;20.538;2024-03-17T04:02:55;34.65;;;20.13;;
66175;SDS011;52977;44.816;20.538;2024-03-17T04:05:22;38.80;;;20.17;;
66175;SDS011;52977;44.816;20.538;2024-03-17T04:07:49;38.38;;;19.50;;
66175;SDS011;52977;44.816;20.538;2024-03-17T04:10:15;38.72;;;20.35;;
66175;SDS011;52977;44.816;20.538;2024-03-17T04:12:44;37.50;;;19.88;;
66175;SDS011;52977;44.816;20.538;2024-03-17T04:15:11;40.38;;;20.17;;
66175;SDS011;52977;44.816;20.538;2024-03-17T04:17:37;35.38;;;19.63;;
66175;SDS011;52977;44.816;20.538;2024-03-17T04:20:04;40.40;;;20.70;;
66175;SDS011;52977;44.816;20.538;2024-03-17T04:22:33;35.42;;;19.30;;
66175;SDS011;52977;44.816;20.538;2024-03-17T04:24:59;35.40;;;18.58;;
66175;SDS011;52977;44.816;20.538;2024-03-17T04:27:26;39.80;;;19.80;;
66175;SDS011;52977;44.816;20.538;2024-03-17T04:29:52;36.53;;;18.42;;
66175;SDS011;52977;44.816;20.538;2024-03-17T04:32:22;36.75;;;19.40;;
66175;SDS011;52977;44.816;20.538;2024-03-17T04:34:49;34.05;;;18.15;;
66175;SDS011;52977;44.816;20.538;2024-03-17T04:37:16;38.03;;;19.90;;
66175;SDS011;52977;44.816;20.538;2024-03-17T04:39:43;37.08;;;19.17;;
66175;SDS011;52977;44.816;20.538;2024-03-17T04:42:14;35.42;;;18.75;;
66175;SDS011;52977;44.816;20.538;2024-03-17T04:44:45;35.78;;;17.90;;
66175;SDS011;52977;44.816;20.538;2024-03-17T04:47:12;29.58;;;15.95;;
66175;SDS011;52977;44.816;20.538;2024-03-17T04:49:41;28.75;;;15.70;;
66175;SDS011;52977;44.816;20.538;2024-03-17T04:52:10;32.00;;;16.80;;
66175;SDS011;52977;44.816;20.538;2024-03-17T04:54:38;33.35;;;16.08;;
66175;SDS011;52977;44.816;20.538;2024-03-17T04:57:04;32.70;;;16.38;;
66175;SDS011;52977;44.816;20.538;2024-03-17T04:59:33;35.20;;;17.10;;
66175;SDS011;52977;44.816;20.538;2024-03-17T05:02:01;35.47;;;17.45;;
66175;SDS011;52977;44.816;20.538;2024-03-17T05:04:28;32.60;;;17.38;;
66175;SDS011;52977;44.816;20.538;2024-03-17T05:06:56;32.17;;;17.00;;
66175;SDS011;52977;44.816;20.538;2024-03-17T05:09:22;32.05;;;17.20;;
66175;SDS011;52977;44.816;20.538;2024-03-17T05:11:50;32.03;;;15.50;;
66175;SDS011;52977;44.816;20.538;2024-03-17T05:14:20;33.05;;;16.23;;
66175;SDS011;52977;44.816;20.538;2024-03-17T05:16:50;29.65;;;15.95;;
66175;SDS011;52977;44.816;20.538;2024-03-17T05:19:16;31.80;;;15.23;;
66175;SDS011;52977;44.816;20.538;2024-03-17T05:21:44;30.17;;;15.80;;
66175;SDS011;52977;44.816;20.538;2024-03-17T05:24:10;32.03;;;16.17;;
66175;SDS011;52977;44.816;20.538;2024-03-17T05:26:37;30.20;;;16.15;;
66175;SDS011;52977;44.816;20.538;2024-03-17T05:29:03;28.30;;;15.57;;
66175;SDS011;52977;44.816;20.538;2024-03-17T05:31:30;32.05;;;16.15;;
66175;SDS011;52977;44.816;20.538;2024-03-17T05:33:57;27.38;;;15.98;;
66175;SDS011;52977;44.816;20.538;2024-03-17T05:36:24;29.17;;;15.77;;
66175;SDS011;52977;44.816;20.538;2024-03-17T05:38:50;27.95;;;15.30;;
66175;SDS011;52977;44.816;20.538;2024-03-17T05:41:16;28.13;;;15.70;;
66175;SDS011;52977;44.816;20.538;2024-03-17T05:43:43;32.50;;;15.77;;
66175;SDS011;52977;44.816;20.538;2024-03-17T05:46:12;31.15;;;16.55;;
66175;SDS011;52977;44.816;20.538;2024-03-17T05:48:40;29.63;;;14.75;;
66175;SDS011;52977;44.816;20.538;2024-03-17T05:51:07;29.63;;;16.02;;
66175;SDS011;52977;44.816;20.538;2024-03-17T05:53:35;29.10;;;15.85;;
66175;SDS011;52977;44.816;20.538;2024-03-17T05:56:03;32.83;;;17.27;;
66175;SDS011;52977;44.816;20.538;2024-03-17T05:58:30;30.48;;;17.33;;
66175;SDS011;52977;44.816;20.538;2024-03-17T06:00:56;32.00;;;17.75;;
66175;SDS011;52977;44.816;20.538;2024-03-17T06:03:24;33.58;;;18.55;;
66175;SDS011;52977;44.816;20.538;2024-03-17T06:05:49;33.90;;;18.73;;
66175;SDS011;52977;44.816;20.538;2024-03-17T06:08:16;31.63;;;18.00;;
66175;SDS011;52977;44.816;20.538;2024-03-17T06:10:46;39.75;;;19.52;;
66175;SDS011;52977;44.816;20.538;2024-03-17T06:13:16;33.17;;;19.50;;
66175;SDS011;52977;44.816;20.538;2024-03-17T06:15:45;37.65;;;19.02;;
66175;SDS011;52977;44.816;20.538;2024-03-17T06:18:14;36.58;;;19.60;;
66175;SDS011;52977;44.816;20.538;2024-03-17T06:20:43;33.72;;;18.52;;
66175;SDS011;52977;44.816;20.538;2024-03-17T06:23:11;35.38;;;19.55;;
66175;SDS011;52977;44.816;20.538;2024-03-17T06:25:41;34.47;;;19.52;;
66175;SDS011;52977;44.816;20.538;2024-03-17T06:28:09;33.03;;;18.40;;
66175;SDS011;52977;44.816;20.538;2024-03-17T06:30:43;35.25;;;18.88;;
66175;SDS011;52977;44.816;20.538;2024-03-17T06:33:11;33.72;;;18.73;;
66175;SDS011;52977;44.816;20.538;2024-03-17T06:35:37;38.60;;;19.10;;
66175;SDS011;52977;44.816;20.538;2024-03-17T06:38:03;37.15;;;19.50;;
66175;SDS011;52977;44.816;20.538;2024-03-17T06:40:29;35.30;;;18.98;;
66175;SDS011;52977;44.816;20.538;2024-03-17T06:42:56;36.55;;;19.60;;
66175;SDS011;52977;44.816;20.538;2024-03-17T06:45:22;36.22;;;18.98;;
66175;SDS011;52977;44.816;20.538;2024-03-17T06:47:49;34.22;;;19.17;;
66175;SDS011;52977;44.816;20.538;2024-03-17T06:50:16;32.80;;;18.73;;
66175;SDS011;52977;44.816;20.538;2024-03-17T06:52:42;36.17;;;19.70;;
66175;SDS011;52977;44.816;20.538;2024-03-17T06:55:08;35.45;;;18.40;;
66175;SDS011;52977;44.816;20.538;2024-03-17T06:57:35;35.85;;;18.50;;
66175;SDS011;52977;44.816;20.538;2024-03-17T07:00:02;31.08;;;15.80;;
66175;SDS011;52977;44.816;20.538;2024-03-17T07:05:18;29.75;;;15.98;;
66175;SDS011;52977;44.816;20.538;2024-03-17T07:07:45;29.27;;;14.88;;
66175;SDS011;52977;44.816;20.538;2024-03-17T07:10:12;26.02;;;13.88;;
66175;SDS011;52977;44.816;20.538;2024-03-17T07:12:38;27.30;;;13.95;;
66175;SDS011;52977;44.816;20.538;2024-03-17T07:15:05;25.27;;;13.15;;
66175;SDS011;52977;44.816;20.538;2024-03-17T07:17:32;24.48;;;12.75;;
66175;SDS011;52977;44.816;20.538;2024-03-17T07:19:58;23.33;;;12.18;;
66175;SDS011;52977;44.816;20.538;2024-03-17T07:22:24;24.55;;;13.10;;
66175;SDS011;52977;44.816;20.538;2024-03-17T07:24:52;23.55;;;12.70;;
66175;SDS011;52977;44.816;20.538;2024-03-17T07:27:26;24.73;;;12.73;;
66175;SDS011;52977;44.816;20.538;2024-03-17T07:29:53;20.80;;;12.15;;
66175;SDS011;52977;44.816;20.538;2024-03-17T07:32:20;23.17;;;12.48;;
66175;SDS011;52977;44.816;20.538;2024-03-17T07:34:47;25.60;;;13.18;;
66175;SDS011;52977;44.816;20.538;2024-03-17T07:37:15;23.30;;;12.65;;
66175;SDS011;52977;44.816;20.538;2024-03-17T07:39:41;22.35;;;12.02;;
66175;SDS011;52977;44.816;20.538;2024-03-17T07:42:07;20.25;;;11.05;;
66175;SDS011;52977;44.816;20.538;2024-03-17T07:44:33;21.50;;;11.70;;
66175;SDS011;52977;44.816;20.538;2024-03-17T07:47:00;17.95;;;9.77;;
66175;SDS011;52977;44.816;20.538;2024-03-17T07:49:30;12.88;;;6.75;;
66175;SDS011;52977;44.816;20.538;2024-03-17T07:51:56;9.27;;;4.93;;
66175;SDS011;52977;44.816;20.538;2024-03-17T07:54:24;7.03;;;3.38;;
66175;SDS011;52977;44.816;20.538;2024-03-17T07:56:51;6.15;;;3.65;;
66175;SDS011;52977;44.816;20.538;2024-03-17T07:59:18;7.32;;;3.80;;
66175;SDS011;52977;44.816;20.538;2024-03-17T08:01:44;7.63;;;3.67;;
66175;SDS011;52977;44.816;20.538;2024-03-17T08:04:11;6.93;;;3.80;;
66175;SDS011;52977;44.816;20.538;2024-03-17T08:06:39;10.65;;;4.60;;
66175;SDS011;52977;44.816;20.538;2024-03-17T08:09:07;7.38;;;4.07;;
66175;SDS011;52977;44.816;20.538;2024-03-17T08:11:37;7.22;;;4.00;;
66175;SDS011;52977;44.816;20.538;2024-03-17T08:14:04;9.88;;;4.40;;
66175;SDS011;52977;44.816;20.538;2024-03-17T08:16:31;10.00;;;5.05;;
66175;SDS011;52977;44.816;20.538;2024-03-17T08:18:58;8.13;;;4.22;;
66175;SDS011;52977;44.816;20.538;2024-03-17T08:21:24;8.40;;;4.35;;
66175;SDS011;52977;44.816;20.538;2024-03-17T08:23:53;9.35;;;4.50;;
66175;SDS011;52977;44.816;20.538;2024-03-17T08:26:19;8.30;;;4.38;;
66175;SDS011;52977;44.816;20.538;2024-03-17T08:28:46;10.73;;;4.93;;
66175;SDS011;52977;44.816;20.538;2024-03-17T08:31:12;9.85;;;4.78;;
66175;SDS011;52977;44.816;20.538;2024-03-17T08:33:41;10.63;;;4.93;;
66175;SDS011;52977;44.816;20.538;2024-03-17T08:36:08;10.15;;;4.30;;
66175;SDS011;52977;44.816;20.538;2024-03-17T08:38:36;7.65;;;4.05;;
66175;SDS011;52977;44.816;20.538;2024-03-17T08:41:04;7.40;;;3.80;;
66175;SDS011;52977;44.816;20.538;2024-03-17T08:43:32;9.13;;;4.35;;
66175;SDS011;52977;44.816;20.538;2024-03-17T08:46:02;8.93;;;4.15;;
66175;SDS011;52977;44.816;20.538;2024-03-17T08:48:32;8.80;;;4.03;;
66175;SDS011;52977;44.816;20.538;2024-03-17T08:51:00;8.48;;;4.82;;
66175;SDS011;52977;44.816;20.538;2024-03-17T08:53:27;7.70;;;4.30;;
66175;SDS011;52977;44.816;20.538;2024-03-17T08:55:54;8.93;;;4.38;;
66175;SDS011;52977;44.816;20.538;2024-03-17T08:58:20;8.73;;;4.10;;
66175;SDS011;52977;44.816;20.538;2024-03-17T09:00:48;7.85;;;3.72;;
66175;SDS011;52977;44.816;20.538;2024-03-17T09:03:14;9.55;;;4.25;;
66175;SDS011;52977;44.816;20.538;2024-03-17T09:05:42;8.32;;;3.63;;
66175;SDS011;52977;44.816;20.538;2024-03-17T09:08:14;8.00;;;3.80;;
66175;SDS011;52977;44.816;20.538;2024-03-17T09:10:42;8.77;;;4.40;;
66175;SDS011;52977;44.816;20.538;2024-03-17T09:13:12;8.43;;;4.15;;
66175;SDS011;52977;44.816;20.538;2024-03-17T09:15:49;7.28;;;3.70;;
66175;SDS011;52977;44.816;20.538;2024-03-17T09:18:20;8.73;;;4.13;;
66175;SDS011;52977;44.816;20.538;2024-03-17T09:20:54;8.98;;;4.20;;
66175;SDS011;52977;44.816;20.538;2024-03-17T09:23:27;8.45;;;3.53;;
66175;SDS011;52977;44.816;20.538;2024-03-17T09:25:58;6.70;;;3.33;;
66175;SDS011;52977;44.816;20.538;2024-03-17T09:28:27;6.00;;;2.40;;
66175;SDS011;52977;44.816;20.538;2024-03-17T09:30:53;6.75;;;3.10;;
66175;SDS011;52977;44.816;20.538;2024-03-17T09:33:21;7.72;;;3.30;;
66175;SDS011;52977;44.816;20.538;2024-03-17T09:36:05;6.13;;;2.47;;
66175;SDS011;52977;44.816;20.538;2024-03-17T09:38:39;6.38;;;2.60;;
66175;SDS011;52977;44.816;20.538;2024-03-17T09:41:30;6.82;;;2.33;;
66175;SDS011;52977;44.816;20.538;2024-03-17T09:44:03;5.20;;;2.40;;
66175;SDS011;52977;44.816;20.538;2024-03-17T09:46:36;5.88;;;2.58;;
66175;SDS011;52977;44.816;20.538;2024-03-17T09:49:03;5.72;;;2.17;;
66175;SDS011;52977;44.816;20.538;2024-03-17T09:51:34;6.82;;;2.75;;
66175;SDS011;52977;44.816;20.538;2024-03-17T09:54:17;4.53;;;2.20;;
66175;SDS011;52977;44.816;20.538;2024-03-17T09:57:07;4.30;;;1.90;;
66175;SDS011;52977;44.816;20.538;2024-03-17T09:59:42;5.32;;;2.58;;
66175;SDS011;52977;44.816;20.538;2024-03-17T10:02:15;6.28;;;2.65;;
66175;SDS011;52977;44.816;20.538;2024-03-17T10:04:44;6.18;;;2.58;;
66175;SDS011;52977;44.816;20.538;2024-03-17T10:07:11;6.25;;;2.53;;
66175;SDS011;52977;44.816;20.538;2024-03-17T10:09:38;4.47;;;2.53;;
66175;SDS011;52977;44.816;20.538;2024-03-17T10:12:05;4.95;;;2.67;;
66175;SDS011;52977;44.816;20.538;2024-03-17T10:15:00;5.70;;;2.70;;
66175;SDS011;52977;44.816;20.538;2024-03-17T10:17:31;6.80;;;3.03;;
66175;SDS011;52977;44.816;20.538;2024-03-17T10:20:11;6.38;;;3.00;;
66175;SDS011;52977;44.816;20.538;2024-03-17T10:25:34;4.80;;;2.10;;
66175;SDS011;52977;44.816;20.538;2024-03-17T10:28:11;6.07;;;2.83;;
66175;SDS011;52977;44.816;20.538;2024-03-17T10:30:39;5.10;;;2.15;;
66175;SDS011;52977;44.816;20.538;2024-03-17T10:33:07;4.88;;;2.10;;
66175;SDS011;52977;44.816;20.538;2024-03-17T10:35:48;4.25;;;1.90;;
66175;SDS011;52977;44.816;20.538;2024-03-17T10:38:15;3.63;;;1.85;;
66175;SDS011;52977;44.816;20.538;2024-03-17T10:40:41;4.82;;;1.70;;
66175;SDS011;52977;44.816;20.538;2024-03-17T10:43:08;9.63;;;1.98;;
66175;SDS011;52977;44.816;20.538;2024-03-17T10:45:36;3.38;;;1.80;;
66175;SDS011;52977;44.816;20.538;2024-03-17T10:48:23;3.38;;;1.38;;
66175;SDS011;52977;44.816;20.538;2024-03-17T10:50:52;2.85;;;1.30;;
66175;SDS011;52977;44.816;20.538;2024-03-17T10:53:22;2.63;;;1.35;;
66175;SDS011;52977;44.816;20.538;2024-03-17T10:56:00;3.15;;;1.30;;
66175;SDS011;52977;44.816;20.538;2024-03-17T10:58:35;3.38;;;1.48;;
66175;SDS011;52977;44.816;20.538;2024-03-17T11:01:07;4.05;;;1.48;;
66175;SDS011;52977;44.816;20.538;2024-03-17T11:03:37;3.90;;;1.70;;
66175;SDS011;52977;44.816;20.538;2024-03-17T11:06:04;4.07;;;1.80;;
66175;SDS011;52977;44.816;20.538;2024-03-17T11:08:32;6.15;;;1.60;;
66175;SDS011;52977;44.816;20.538;2024-03-17T11:11:00;4.38;;;2.00;;
66175;SDS011;52977;44.816;20.538;2024-03-17T11:13:31;4.50;;;1.88;;
66175;SDS011;52977;44.816;20.538;2024-03-17T11:15:58;4.78;;;1.90;;
66175;SDS011;52977;44.816;20.538;2024-03-17T11:18:29;4.00;;;2.00;;
66175;SDS011;52977;44.816;20.538;2024-03-17T11:21:01;3.80;;;2.05;;
66175;SDS011;52977;44.816;20.538;2024-03-17T11:23:38;3.38;;;1.77;;
66175;SDS011;52977;44.816;20.538;2024-03-17T11:26:05;5.03;;;2.30;;
66175;SDS011;52977;44.816;20.538;2024-03-17T11:34:27;4.43;;;2.20;;
66175;SDS011;52977;44.816;20.538;2024-03-17T11:37:05;5.57;;;2.30;;
66175;SDS011;52977;44.816;20.538;2024-03-17T11:39:54;5.28;;;2.42;;
66175;SDS011;52977;44.816;20.538;2024-03-17T11:42:25;4.13;;;2.10;;
66175;SDS011;52977;44.816;20.538;2024-03-17T11:45:12;5.25;;;2.35;;
66175;SDS011;52977;44.816;20.538;2024-03-17T11:47:41;5.20;;;2.60;;
66175;SDS011;52977;44.816;20.538;2024-03-17T11:50:09;5.70;;;2.80;;
66175;SDS011;52977;44.816;20.538;2024-03-17T11:52:38;5.25;;;2.78;;
66175;SDS011;52977;44.816;20.538;2024-03-17T11:55:17;7.68;;;3.20;;
66175;SDS011;52977;44.816;20.538;2024-03-17T11:57:44;5.32;;;2.67;;
66175;SDS011;52977;44.816;20.538;2024-03-17T12:00:21;5.97;;;2.75;;
66175;SDS011;52977;44.816;20.538;2024-03-17T12:02:49;5.50;;;2.85;;
66175;SDS011;52977;44.816;20.538;2024-03-17T12:05:16;6.38;;;2.83;;
66175;SDS011;52977;44.816;20.538;2024-03-17T12:07:43;7.07;;;2.63;;
66175;SDS011;52977;44.816;20.538;2024-03-17T12:10:10;5.40;;;2.80;;
66175;SDS011;52977;44.816;20.538;2024-03-17T12:12:39;4.50;;;2.35;;
66175;SDS011;52977;44.816;20.538;2024-03-17T12:15:18;4.30;;;2.15;;
66175;SDS011;52977;44.816;20.538;2024-03-17T12:17:46;4.97;;;2.43;;
66175;SDS011;52977;44.816;20.538;2024-03-17T12:20:19;5.00;;;2.45;;
66175;SDS011;52977;44.816;20.538;2024-03-17T12:22:46;7.13;;;3.08;;
66175;SDS011;52977;44.816;20.538;2024-03-17T12:25:16;3.72;;;1.67;;
66175;SDS011;52977;44.816;20.538;2024-03-17T12:27:44;5.90;;;2.67;;
66175;SDS011;52977;44.816;20.538;2024-03-17T12:30:12;5.43;;;2.80;;
66175;SDS011;52977;44.816;20.538;2024-03-17T12:32:39;5.78;;;2.78;;
66175;SDS011;52977;44.816;20.538;2024-03-17T12:35:14;7.00;;;3.05;;
66175;SDS011;52977;44.816;20.538;2024-03-17T12:37:45;5.82;;;3.13;;
66175;SDS011;52977;44.816;20.538;2024-03-17T12:40:19;5.43;;;2.97;;
66175;SDS011;52977;44.816;20.538;2024-03-17T12:42:48;5.90;;;2.80;;
66175;SDS011;52977;44.816;20.538;2024-03-17T12:45:19;7.45;;;3.22;;
66175;SDS011;52977;44.816;20.538;2024-03-17T12:47:49;5.82;;;2.80;;
66175;SDS011;52977;44.816;20.538;2024-03-17T12:50:17;6.50;;;3.10;;
66175;SDS011;52977;44.816;20.538;2024-03-17T12:52:54;4.53;;;2.58;;
66175;SDS011;52977;44.816;20.538;2024-03-17T12:55:22;6.18;;;2.33;;
66175;SDS011;52977;44.816;20.538;2024-03-17T12:58:07;6.43;;;2.42;;
66175;SDS011;52977;44.816;20.538;2024-03-17T13:01:00;5.88;;;2.30;;
66175;SDS011;52977;44.816;20.538;2024-03-17T13:03:26;5.22;;;2.10;;
66175;SDS011;52977;44.816;20.538;2024-03-17T13:05:54;5.72;;;2.47;;
66175;SDS011;52977;44.816;20.538;2024-03-17T13:08:20;5.68;;;2.55;;
66175;SDS011;52977;44.816;20.538;2024-03-17T13:10:47;4.55;;;2.55;;
66175;SDS011;52977;44.816;20.538;2024-03-17T13:13:13;6.13;;;3.28;;
66175;SDS011;52977;44.816;20.538;2024-03-17T13:15:42;4.63;;;2.28;;
66175;SDS011;52977;44.816;20.538;2024-03-17T13:18:12;5.90;;;3.13;;
66175;SDS011;52977;44.816;20.538;2024-03-17T13:20:44;4.95;;;2.50;;
66175;SDS011;52977;44.816;20.538;2024-03-17T13:23:11;5.63;;;2.10;;
66175;SDS011;52977;44.816;20.538;2024-03-17T13:25:38;4.53;;;2.40;;
66175;SDS011;52977;44.816;20.538;2024-03-17T13:28:05;4.70;;;2.50;;
66175;SDS011;52977;44.816;20.538;2024-03-17T13:30:33;5.75;;;2.60;;
66175;SDS011;52977;44.816;20.538;2024-03-17T13:33:02;4.85;;;2.03;;
66175;SDS011;52977;44.816;20.538;2024-03-17T13:35:39;5.70;;;2.33;;
66175;SDS011;52977;44.816;20.538;2024-03-17T13:38:08;5.40;;;2.03;;
66175;SDS011;52977;44.816;20.538;2024-03-17T13:40:54;4.32;;;1.98;;
66175;SDS011;52977;44.816;20.538;2024-03-17T13:43:40;4.93;;;2.50;;
66175;SDS011;52977;44.816;20.538;2024-03-17T13:46:26;4.05;;;1.85;;
66175;SDS011;52977;44.816;20.538;2024-03-17T13:49:12;4.07;;;1.92;;
66175;SDS011;52977;44.816;20.538;2024-03-17T13:51:57;4.30;;;1.70;;
66175;SDS011;52977;44.816;20.538;2024-03-17T13:54:43;4.53;;;1.88;;
66175;SDS011;52977;44.816;20.538;2024-03-17T13:57:09;3.65;;;1.70;;
66175;SDS011;52977;44.816;20.538;2024-03-17T13:59:55;4.70;;;1.95;;
66175;SDS011;52977;44.816;20.538;2024-03-17T14:02:22;4.07;;;2.10;;
66175;SDS011;52977;44.816;20.538;2024-03-17T14:04:48;5.07;;;1.88;;
66175;SDS011;52977;44.816;20.538;2024-03-17T14:07:14;4.18;;;1.55;;
66175;SDS011;52977;44.816;20.538;2024-03-17T14:10:01;4.03;;;1.95;;
66175;SDS011;52977;44.816;20.538;2024-03-17T14:12:48;3.35;;;1.60;;
66175;SDS011;52977;44.816;20.538;2024-03-17T14:15:33;4.57;;;1.83;;
66175;SDS011;52977;44.816;20.538;2024-03-17T14:18:19;4.60;;;1.80;;
66175;SDS011;52977;44.816;20.538;2024-03-17T14:20:45;3.53;;;1.60;;
66175;SDS011;52977;44.816;20.538;2024-03-17T14:23:31;4.72;;;1.85;;
66175;SDS011;52977;44.816;20.538;2024-03-17T14:25:57;3.55;;;1.80;;
66175;SDS011;52977;44.816;20.538;2024-03-17T14:28:22;5.50;;;2.28;;
66175;SDS011;52977;44.816;20.538;2024-03-17T14:31:08;5.03;;;2.03;;
66175;SDS011;52977;44.816;20.538;2024-03-17T14:33:54;3.60;;;1.55;;
66175;SDS011;52977;44.816;20.538;2024-03-17T14:36:40;4.53;;;2.10;;
66175;SDS011;52977;44.816;20.538;2024-03-17T14:39:25;4.78;;;2.00;;
66175;SDS011;52977;44.816;20.538;2024-03-17T14:42:11;3.88;;;1.90;;
66175;SDS011;52977;44.816;20.538;2024-03-17T14:44:57;7.20;;;2.10;;
66175;SDS011;52977;44.816;20.538;2024-03-17T14:47:43;4.00;;;1.80;;
66175;SDS011;52977;44.816;20.538;2024-03-17T14:50:28;3.45;;;1.42;;